sensor_id;sensor_type;location;lat;lon;timestamp;temperature;humidity
32147;DHT22;32190;49.112;8.598;2023-02-14T00:01:45;7.20;56.40
32147;DHT22;32190;49.112;8.598;2023-02-14T00:07:35;7.20;56.30
32147;DHT22;32190;49.112;8.598;2023-02-14T00:13:26;7.10;56.00
32147;DHT22;32190;49.112;8.598;2023-02-14T00:19:18;7.00;56.00
32147;DHT22;32190;49.112;8.598;2023-02-14T00:25:08;6.90;55.90
32147;DHT22;32190;49.112;8.598;2023-02-14T00:31:00;6.80;55.80
32147;DHT22;32190;49.112;8.598;2023-02-14T00:36:51;6.70;56.20
32147;DHT22;32190;49.112;8.598;2023-02-14T00:42:42;6.70;56.50
32147;DHT22;32190;49.112;8.598;2023-02-14T00:48:32;6.70;56.40
32147;DHT22;32190;49.112;8.598;2023-02-14T00:54:23;6.70;56.50
32147;DHT22;32190;49.112;8.598;2023-02-14T01:00:14;6.70;56.40
32147;DHT22;32190;49.112;8.598;2023-02-14T01:06:07;6.70;56.40
32147;DHT22;32190;49.112;8.598;2023-02-14T01:11:57;6.70;56.20
32147;DHT22;32190;49.112;8.598;2023-02-14T01:17:48;6.70;56.10
32147;DHT22;32190;49.112;8.598;2023-02-14T01:23:39;6.70;56.10
32147;DHT22;32190;49.112;8.598;2023-02-14T01:29:29;6.60;56.10
32147;DHT22;32190;49.112;8.598;2023-02-14T01:35:20;6.60;56.10
32147;DHT22;32190;49.112;8.598;2023-02-14T01:41:11;6.50;56.20
32147;DHT22;32190;49.112;8.598;2023-02-14T01:47:04;6.50;56.30
32147;DHT22;32190;49.112;8.598;2023-02-14T01:52:59;6.50;56.30
32147;DHT22;32190;49.112;8.598;2023-02-14T01:58:53;6.50;56.20
32147;DHT22;32190;49.112;8.598;2023-02-14T02:04:45;6.40;56.20
32147;DHT22;32190;49.112;8.598;2023-02-14T02:10:36;6.40;56.30
32147;DHT22;32190;49.112;8.598;2023-02-14T02:22:49;6.30;56.30
32147;DHT22;32190;49.112;8.598;2023-02-14T02:47:37;6.20;56.20
32147;DHT22;32190;49.112;8.598;2023-02-14T02:53:58;6.20;56.40
32147;DHT22;32190;49.112;8.598;2023-02-14T02:59:51;6.20;56.30
32147;DHT22;32190;49.112;8.598;2023-02-14T03:05:43;6.10;56.20
32147;DHT22;32190;49.112;8.598;2023-02-14T03:11:34;6.10;56.20
32147;DHT22;32190;49.112;8.598;2023-02-14T03:17:35;6.00;56.20
32147;DHT22;32190;49.112;8.598;2023-02-14T03:23:38;6.00;56.30
32147;DHT22;32190;49.112;8.598;2023-02-14T03:30:02;5.90;56.10
32147;DHT22;32190;49.112;8.598;2023-02-14T03:36:04;5.90;55.90
32147;DHT22;32190;49.112;8.598;2023-02-14T03:42:00;5.80;55.80
32147;DHT22;32190;49.112;8.598;2023-02-14T03:47:55;5.80;56.40
32147;DHT22;32190;49.112;8.598;2023-02-14T03:53:50;5.70;56.50
32147;DHT22;32190;49.112;8.598;2023-02-14T03:59:42;5.70;56.80
32147;DHT22;32190;49.112;8.598;2023-02-14T04:05:33;5.70;57.00
32147;DHT22;32190;49.112;8.598;2023-02-14T04:11:24;5.60;57.20
32147;DHT22;32190;49.112;8.598;2023-02-14T04:17:14;5.60;57.40
32147;DHT22;32190;49.112;8.598;2023-02-14T04:23:23;5.60;57.60
32147;DHT22;32190;49.112;8.598;2023-02-14T04:29:14;5.60;57.80
32147;DHT22;32190;49.112;8.598;2023-02-14T04:35:05;5.60;57.80
32147;DHT22;32190;49.112;8.598;2023-02-14T04:40:55;5.60;57.90
32147;DHT22;32190;49.112;8.598;2023-02-14T04:46:46;5.60;58.00
32147;DHT22;32190;49.112;8.598;2023-02-14T04:52:37;5.60;58.10
32147;DHT22;32190;49.112;8.598;2023-02-14T04:58:27;5.60;58.10
32147;DHT22;32190;49.112;8.598;2023-02-14T05:04:18;5.50;58.20
32147;DHT22;32190;49.112;8.598;2023-02-14T05:10:09;5.50;58.30
32147;DHT22;32190;49.112;8.598;2023-02-14T05:16:00;5.50;58.30
32147;DHT22;32190;49.112;8.598;2023-02-14T05:21:50;5.50;58.30
32147;DHT22;32190;49.112;8.598;2023-02-14T05:27:41;5.60;58.40
32147;DHT22;32190;49.112;8.598;2023-02-14T05:33:31;5.60;58.40
32147;DHT22;32190;49.112;8.598;2023-02-14T05:39:22;5.60;58.40
32147;DHT22;32190;49.112;8.598;2023-02-14T05:45:13;5.60;58.40
32147;DHT22;32190;49.112;8.598;2023-02-14T05:51:05;5.60;58.50
32147;DHT22;32190;49.112;8.598;2023-02-14T05:56:55;5.60;58.60
32147;DHT22;32190;49.112;8.598;2023-02-14T06:02:46;5.60;58.60
32147;DHT22;32190;49.112;8.598;2023-02-14T06:08:36;5.60;58.70
32147;DHT22;32190;49.112;8.598;2023-02-14T06:14:27;5.60;58.70
32147;DHT22;32190;49.112;8.598;2023-02-14T06:20:18;5.60;58.70
32147;DHT22;32190;49.112;8.598;2023-02-14T06:26:08;5.60;58.70
32147;DHT22;32190;49.112;8.598;2023-02-14T06:31:59;5.60;58.80
32147;DHT22;32190;49.112;8.598;2023-02-14T06:37:54;5.60;58.80
32147;DHT22;32190;49.112;8.598;2023-02-14T06:43:46;5.60;58.80
32147;DHT22;32190;49.112;8.598;2023-02-14T06:49:39;5.60;58.90
32147;DHT22;32190;49.112;8.598;2023-02-14T06:55:30;5.60;58.80
32147;DHT22;32190;49.112;8.598;2023-02-14T07:01:21;5.60;58.80
32147;DHT22;32190;49.112;8.598;2023-02-14T07:07:11;5.50;58.90
32147;DHT22;32190;49.112;8.598;2023-02-14T07:13:02;5.60;59.10
32147;DHT22;32190;49.112;8.598;2023-02-14T07:18:53;5.50;59.10
32147;DHT22;32190;49.112;8.598;2023-02-14T07:24:43;5.60;59.20
32147;DHT22;32190;49.112;8.598;2023-02-14T07:30:34;5.60;59.30
32147;DHT22;32190;49.112;8.598;2023-02-14T07:36:25;5.60;59.40
32147;DHT22;32190;49.112;8.598;2023-02-14T07:42:15;5.70;59.50
32147;DHT22;32190;49.112;8.598;2023-02-14T07:48:06;5.80;59.50
32147;DHT22;32190;49.112;8.598;2023-02-14T07:53:56;5.90;59.50
32147;DHT22;32190;49.112;8.598;2023-02-14T07:59:47;6.00;59.50
32147;DHT22;32190;49.112;8.598;2023-02-14T08:05:38;6.00;59.30
32147;DHT22;32190;49.112;8.598;2023-02-14T08:11:28;6.10;59.40
32147;DHT22;32190;49.112;8.598;2023-02-14T08:17:38;6.10;59.50
32147;DHT22;32190;49.112;8.598;2023-02-14T08:23:29;6.20;59.60
32147;DHT22;32190;49.112;8.598;2023-02-14T08:29:19;6.30;59.40
32147;DHT22;32190;49.112;8.598;2023-02-14T08:35:10;6.30;59.50
32147;DHT22;32190;49.112;8.598;2023-02-14T08:41:01;6.40;59.50
32147;DHT22;32190;49.112;8.598;2023-02-14T08:46:51;6.40;59.40
32147;DHT22;32190;49.112;8.598;2023-02-14T08:52:42;6.50;59.40
32147;DHT22;32190;49.112;8.598;2023-02-14T08:58:33;6.50;59.50
32147;DHT22;32190;49.112;8.598;2023-02-14T09:04:25;6.60;59.50
32147;DHT22;32190;49.112;8.598;2023-02-14T09:10:15;6.60;59.40
32147;DHT22;32190;49.112;8.598;2023-02-14T09:16:09;6.60;59.30
32147;DHT22;32190;49.112;8.598;2023-02-14T09:22:00;6.60;59.60
32147;DHT22;32190;49.112;8.598;2023-02-14T09:27:53;6.70;59.60
32147;DHT22;32190;49.112;8.598;2023-02-14T09:33:45;6.70;59.40
32147;DHT22;32190;49.112;8.598;2023-02-14T09:39:36;6.70;60.10
32147;DHT22;32190;49.112;8.598;2023-02-14T09:45:28;6.70;59.60
32147;DHT22;32190;49.112;8.598;2023-02-14T09:51:23;6.70;59.60
32147;DHT22;32190;49.112;8.598;2023-02-14T09:57:23;6.70;59.70
32147;DHT22;32190;49.112;8.598;2023-02-14T10:03:37;6.80;59.90
32147;DHT22;32190;49.112;8.598;2023-02-14T10:09:54;6.80;59.90
32147;DHT22;32190;49.112;8.598;2023-02-14T10:15:57;6.90;59.80
32147;DHT22;32190;49.112;8.598;2023-02-14T10:22:01;6.90;60.00
32147;DHT22;32190;49.112;8.598;2023-02-14T10:27:54;7.00;59.70
32147;DHT22;32190;49.112;8.598;2023-02-14T10:33:56;7.00;59.70
32147;DHT22;32190;49.112;8.598;2023-02-14T10:40:39;7.00;59.90
32147;DHT22;32190;49.112;8.598;2023-02-14T10:46:26;7.00;59.80
32147;DHT22;32190;49.112;8.598;2023-02-14T10:52:36;7.10;60.50
32147;DHT22;32190;49.112;8.598;2023-02-14T10:58:32;7.20;59.80
32147;DHT22;32190;49.112;8.598;2023-02-14T11:04:25;7.30;59.60
32147;DHT22;32190;49.112;8.598;2023-02-14T11:10:17;7.40;59.70
32147;DHT22;32190;49.112;8.598;2023-02-14T11:16:11;7.50;59.70
32147;DHT22;32190;49.112;8.598;2023-02-14T11:22:03;7.60;59.60
32147;DHT22;32190;49.112;8.598;2023-02-14T11:28:02;7.70;59.40
32147;DHT22;32190;49.112;8.598;2023-02-14T11:33:53;7.80;59.30
32147;DHT22;32190;49.112;8.598;2023-02-14T11:39:44;7.80;59.20
32147;DHT22;32190;49.112;8.598;2023-02-14T11:45:37;7.90;59.20
32147;DHT22;32190;49.112;8.598;2023-02-14T11:51:34;8.00;59.20
32147;DHT22;32190;49.112;8.598;2023-02-14T11:57:32;8.10;59.00
32147;DHT22;32190;49.112;8.598;2023-02-14T12:03:25;8.10;58.80
32147;DHT22;32190;49.112;8.598;2023-02-14T12:09:24;8.20;58.80
32147;DHT22;32190;49.112;8.598;2023-02-14T12:27:29;8.40;58.90
32147;DHT22;32190;49.112;8.598;2023-02-14T12:33:21;8.40;59.00
32147;DHT22;32190;49.112;8.598;2023-02-14T12:45:51;8.60;58.80
32147;DHT22;32190;49.112;8.598;2023-02-14T12:57:53;8.80;58.80
32147;DHT22;32190;49.112;8.598;2023-02-14T13:09:50;8.90;58.70
32147;DHT22;32190;49.112;8.598;2023-02-14T13:22:17;9.20;58.80
32147;DHT22;32190;49.112;8.598;2023-02-14T13:28:11;9.30;58.50
32147;DHT22;32190;49.112;8.598;2023-02-14T13:34:11;9.40;58.50
32147;DHT22;32190;49.112;8.598;2023-02-14T13:40:19;9.40;58.40
32147;DHT22;32190;49.112;8.598;2023-02-14T13:46:17;9.50;58.40
32147;DHT22;32190;49.112;8.598;2023-02-14T13:52:08;9.60;58.40
32147;DHT22;32190;49.112;8.598;2023-02-14T13:58:04;9.60;58.40
32147;DHT22;32190;49.112;8.598;2023-02-14T14:03:59;9.70;58.40
32147;DHT22;32190;49.112;8.598;2023-02-14T14:22:27;10.00;58.10
32147;DHT22;32190;49.112;8.598;2023-02-14T14:28:20;10.10;58.10
32147;DHT22;32190;49.112;8.598;2023-02-14T14:34:17;10.20;58.00
32147;DHT22;32190;49.112;8.598;2023-02-14T14:46:21;10.20;57.60
32147;DHT22;32190;49.112;8.598;2023-02-14T14:52:38;10.30;57.70
32147;DHT22;32190;49.112;8.598;2023-02-14T14:58:34;10.30;57.80
32147;DHT22;32190;49.112;8.598;2023-02-14T15:04:29;10.30;57.50
32147;DHT22;32190;49.112;8.598;2023-02-14T15:10:26;10.30;57.60
32147;DHT22;32190;49.112;8.598;2023-02-14T15:28:31;10.30;57.30
32147;DHT22;32190;49.112;8.598;2023-02-14T15:34:25;10.30;57.30
32147;DHT22;32190;49.112;8.598;2023-02-14T15:40:20;10.20;57.30
32147;DHT22;32190;49.112;8.598;2023-02-14T15:46:26;10.20;57.30
32147;DHT22;32190;49.112;8.598;2023-02-14T15:52:18;10.20;57.20
32147;DHT22;32190;49.112;8.598;2023-02-14T15:58:23;10.20;57.30
32147;DHT22;32190;49.112;8.598;2023-02-14T16:04:28;10.10;57.20
32147;DHT22;32190;49.112;8.598;2023-02-14T16:10:23;10.10;57.20
32147;DHT22;32190;49.112;8.598;2023-02-14T16:16:14;10.10;57.30
32147;DHT22;32190;49.112;8.598;2023-02-14T16:22:09;10.00;57.50
32147;DHT22;32190;49.112;8.598;2023-02-14T16:27:59;10.10;57.70
32147;DHT22;32190;49.112;8.598;2023-02-14T16:33:50;10.20;57.70
32147;DHT22;32190;49.112;8.598;2023-02-14T16:39:40;10.20;57.60
32147;DHT22;32190;49.112;8.598;2023-02-14T16:45:31;10.30;57.50
32147;DHT22;32190;49.112;8.598;2023-02-14T16:51:24;10.40;57.40
32147;DHT22;32190;49.112;8.598;2023-02-14T16:57:28;10.40;57.30
32147;DHT22;32190;49.112;8.598;2023-02-14T17:03:22;10.40;57.20
32147;DHT22;32190;49.112;8.598;2023-02-14T17:09:14;10.50;57.00
32147;DHT22;32190;49.112;8.598;2023-02-14T17:15:12;10.40;56.90
32147;DHT22;32190;49.112;8.598;2023-02-14T17:21:04;10.50;56.90
32147;DHT22;32190;49.112;8.598;2023-02-14T17:26:54;10.40;56.80
32147;DHT22;32190;49.112;8.598;2023-02-14T17:32:45;10.40;56.70
32147;DHT22;32190;49.112;8.598;2023-02-14T17:38:35;10.30;56.60
32147;DHT22;32190;49.112;8.598;2023-02-14T17:44:26;10.30;56.70
32147;DHT22;32190;49.112;8.598;2023-02-14T17:50:19;10.20;56.60
32147;DHT22;32190;49.112;8.598;2023-02-14T17:56:12;10.20;56.50
32147;DHT22;32190;49.112;8.598;2023-02-14T18:02:04;10.10;56.50
32147;DHT22;32190;49.112;8.598;2023-02-14T18:07:55;10.00;56.50
32147;DHT22;32190;49.112;8.598;2023-02-14T18:13:47;10.00;56.60
32147;DHT22;32190;49.112;8.598;2023-02-14T18:19:39;9.90;56.50
32147;DHT22;32190;49.112;8.598;2023-02-14T18:25:29;9.90;56.60
32147;DHT22;32190;49.112;8.598;2023-02-14T18:31:20;9.80;56.50
32147;DHT22;32190;49.112;8.598;2023-02-14T18:37:12;9.80;56.50
32147;DHT22;32190;49.112;8.598;2023-02-14T18:43:02;9.70;56.40
32147;DHT22;32190;49.112;8.598;2023-02-14T18:48:54;9.70;56.50
32147;DHT22;32190;49.112;8.598;2023-02-14T18:54:45;9.60;56.20
32147;DHT22;32190;49.112;8.598;2023-02-14T19:00:36;9.50;56.20
32147;DHT22;32190;49.112;8.598;2023-02-14T19:06:29;9.40;56.20
32147;DHT22;32190;49.112;8.598;2023-02-14T19:12:19;9.30;56.20
32147;DHT22;32190;49.112;8.598;2023-02-14T19:18:10;9.30;56.20
32147;DHT22;32190;49.112;8.598;2023-02-14T19:24:02;9.20;56.10
32147;DHT22;32190;49.112;8.598;2023-02-14T19:29:53;9.10;55.80
32147;DHT22;32190;49.112;8.598;2023-02-14T19:35:43;9.00;55.90
32147;DHT22;32190;49.112;8.598;2023-02-14T19:41:34;9.00;56.10
32147;DHT22;32190;49.112;8.598;2023-02-14T19:47:25;8.90;55.90
32147;DHT22;32190;49.112;8.598;2023-02-14T19:53:15;8.80;56.00
32147;DHT22;32190;49.112;8.598;2023-02-14T19:59:06;8.80;55.90
32147;DHT22;32190;49.112;8.598;2023-02-14T20:04:58;8.70;56.00
32147;DHT22;32190;49.112;8.598;2023-02-14T20:10:53;8.70;56.20
32147;DHT22;32190;49.112;8.598;2023-02-14T20:16:44;8.60;56.10
32147;DHT22;32190;49.112;8.598;2023-02-14T20:22:35;8.50;56.60
32147;DHT22;32190;49.112;8.598;2023-02-14T20:28:25;8.50;56.00
32147;DHT22;32190;49.112;8.598;2023-02-14T20:34:16;8.40;55.90
32147;DHT22;32190;49.112;8.598;2023-02-14T20:40:07;8.30;55.90
32147;DHT22;32190;49.112;8.598;2023-02-14T20:46:00;8.30;55.80
32147;DHT22;32190;49.112;8.598;2023-02-14T20:51:52;8.20;55.80
32147;DHT22;32190;49.112;8.598;2023-02-14T20:57:43;8.10;55.80
32147;DHT22;32190;49.112;8.598;2023-02-14T21:03:34;8.10;55.80
32147;DHT22;32190;49.112;8.598;2023-02-14T21:09:26;8.00;55.80
32147;DHT22;32190;49.112;8.598;2023-02-14T21:15:18;8.00;55.70
32147;DHT22;32190;49.112;8.598;2023-02-14T21:21:14;7.90;55.60
32147;DHT22;32190;49.112;8.598;2023-02-14T21:27:05;7.90;55.60
32147;DHT22;32190;49.112;8.598;2023-02-14T21:32:56;7.80;55.60
32147;DHT22;32190;49.112;8.598;2023-02-14T21:38:47;7.70;55.40
32147;DHT22;32190;49.112;8.598;2023-02-14T21:44:37;7.60;55.40
32147;DHT22;32190;49.112;8.598;2023-02-14T21:50:47;7.60;55.50
32147;DHT22;32190;49.112;8.598;2023-02-14T21:56:38;7.50;55.60
32147;DHT22;32190;49.112;8.598;2023-02-14T22:02:30;7.40;55.50
32147;DHT22;32190;49.112;8.598;2023-02-14T22:08:20;7.40;55.20
32147;DHT22;32190;49.112;8.598;2023-02-14T22:14:11;7.30;55.30
32147;DHT22;32190;49.112;8.598;2023-02-14T22:20:02;7.20;55.40
32147;DHT22;32190;49.112;8.598;2023-02-14T22:25:55;7.20;55.50
32147;DHT22;32190;49.112;8.598;2023-02-14T22:31:46;7.10;55.40
32147;DHT22;32190;49.112;8.598;2023-02-14T22:37:36;7.10;55.70
32147;DHT22;32190;49.112;8.598;2023-02-14T22:43:27;7.10;56.00
32147;DHT22;32190;49.112;8.598;2023-02-14T22:49:17;7.10;56.20
32147;DHT22;32190;49.112;8.598;2023-02-14T22:55:08;7.10;56.50
32147;DHT22;32190;49.112;8.598;2023-02-14T23:00:59;7.10;56.80
32147;DHT22;32190;49.112;8.598;2023-02-14T23:06:51;7.00;57.00
32147;DHT22;32190;49.112;8.598;2023-02-14T23:12:41;7.10;57.20
32147;DHT22;32190;49.112;8.598;2023-02-14T23:18:50;7.10;57.70
32147;DHT22;32190;49.112;8.598;2023-02-14T23:25:02;7.10;57.20
32147;DHT22;32190;49.112;8.598;2023-02-14T23:30:53;7.10;57.20
32147;DHT22;32190;49.112;8.598;2023-02-14T23:36:44;7.10;57.30
32147;DHT22;32190;49.112;8.598;2023-02-14T23:42:35;7.10;57.20
32147;DHT22;32190;49.112;8.598;2023-02-14T23:48:25;7.20;57.20
32147;DHT22;32190;49.112;8.598;2023-02-14T23:54:18;7.20;57.30
